createdAt,value
2023-06-22T07:46:28.316Z,94492.00
2023-06-22T07:46:39.607Z,94490.00
2023-06-22T07:46:51.184Z,94494.00
2023-06-22T07:47:02.547Z,94492.00
2023-06-22T07:47:14.171Z,94492.00
2023-06-22T07:47:25.521Z,94494.00
2023-06-22T07:47:37.228Z,94492.00
2023-06-22T07:47:48.682Z,94490.00
2023-06-22T07:48:00.336Z,94492.00
2023-06-22T07:48:11.709Z,94490.00
2023-06-22T07:48:23.325Z,94490.00
2023-06-22T07:48:34.664Z,94492.00
2023-06-22T07:48:46.249Z,94490.00
2023-06-22T07:48:57.564Z,94490.00
2023-06-22T07:49:09.177Z,94490.00
2023-06-22T07:49:20.507Z,94488.00
2023-06-22T07:49:32.261Z,94488.00
2023-06-22T07:49:43.581Z,94488.00
2023-06-22T07:49:55.141Z,94490.00
2023-06-22T07:50:06.458Z,94490.00
2023-06-22T07:50:18.062Z,94492.00
2023-06-22T07:50:29.679Z,94488.00
2023-06-22T07:50:41.485Z,94490.00
2023-06-22T07:50:52.792Z,94490.00
2023-06-22T07:51:04.351Z,94490.00
2023-06-22T07:51:15.669Z,94488.00
2023-06-22T07:51:27.258Z,94490.00
2023-06-22T07:51:38.576Z,94488.00
2023-06-22T07:51:50.148Z,94488.00
2023-06-22T07:52:01.473Z,94488.00
2023-06-22T07:52:13.040Z,94488.00
2023-06-22T07:52:24.345Z,94488.00
2023-06-22T07:52:35.926Z,94488.00
2023-06-22T07:52:47.230Z,94488.00
2023-06-22T07:52:58.808Z,94488.00
2023-06-22T07:53:10.123Z,94486.00
2023-06-22T07:53:21.677Z,94486.00
2023-06-22T07:53:32.983Z,94488.00
2023-06-22T07:53:44.564Z,94488.00
2023-06-22T07:53:55.922Z,94486.00
2023-06-22T07:54:07.573Z,94486.00
2023-06-22T07:54:18.877Z,94488.00
2023-06-22T07:54:30.468Z,94486.00
2023-06-22T07:54:41.814Z,94486.00
2023-06-22T07:54:53.412Z,94490.00
2023-06-22T07:55:04.754Z,94488.00
2023-06-22T07:55:16.370Z,94488.00
2023-06-22T07:55:28.168Z,94490.00
2023-06-22T07:55:40.016Z,94488.00
2023-06-22T07:55:51.354Z,94490.00
2023-06-22T07:56:02.967Z,94488.00
2023-06-22T07:56:14.295Z,94488.00
2023-06-22T07:56:25.890Z,94490.00
2023-06-22T07:56:37.220Z,94488.00
2023-06-22T07:56:48.809Z,94490.00
2023-06-22T07:57:00.197Z,94488.00
2023-06-22T07:57:11.739Z,94486.00
2023-06-22T07:57:23.083Z,94488.00
2023-06-22T07:57:34.911Z,94490.00
2023-06-22T07:57:46.973Z,94490.00
2023-06-22T07:57:58.300Z,94486.00
2023-06-22T07:58:09.862Z,94490.00
2023-06-22T07:58:21.180Z,94488.00
2023-06-22T07:58:32.796Z,94488.00
2023-06-22T07:58:44.132Z,94488.00
2023-06-22T07:58:55.748Z,94490.00
2023-06-22T07:59:07.077Z,94488.00
2023-06-22T07:59:18.666Z,94488.00
2023-06-22T07:59:29.994Z,94488.00
2023-06-22T07:59:41.571Z,94488.00
2023-06-22T07:59:52.882Z,94488.00
2023-06-22T08:00:04.603Z,94488.00
2023-06-22T08:00:15.926Z,94486.00
2023-06-22T08:00:27.518Z,94488.00
2023-06-22T08:00:38.820Z,94486.00
2023-06-22T08:00:50.432Z,94486.00
2023-06-22T08:01:01.760Z,94490.00
2023-06-22T08:01:13.348Z,94490.00
2023-06-22T08:01:24.714Z,94488.00
2023-06-22T08:01:36.706Z,94488.00
2023-06-22T08:01:48.413Z,94486.00
2023-06-22T08:01:59.785Z,94488.00
2023-06-22T08:02:11.475Z,94488.00
2023-06-22T08:02:22.919Z,94490.00
2023-06-22T08:02:34.555Z,94488.00
2023-06-22T08:02:45.973Z,94488.00
2023-06-22T08:02:57.696Z,94490.00
2023-06-22T08:03:09.271Z,94486.00
2023-06-22T08:03:21.033Z,94488.00
2023-06-22T08:03:32.595Z,94488.00
2023-06-22T08:03:44.229Z,94488.00
2023-06-22T08:03:55.630Z,94486.00
2023-06-22T08:04:07.261Z,94486.00
2023-06-22T08:04:18.649Z,94490.00
2023-06-22T08:04:30.263Z,94484.00
2023-06-22T08:04:41.591Z,94490.00
2023-06-22T08:04:56.373Z,94488.00
2023-06-22T08:05:19.050Z,94484.00
2023-06-22T08:05:21.746Z,94486.00
2023-06-22T08:05:29.107Z,94484.00
2023-06-22T08:05:40.635Z,94488.00
2023-06-22T08:05:52.270Z,94488.00
2023-06-22T08:06:03.621Z,94490.00
2023-06-22T08:06:15.211Z,94488.00
2023-06-22T08:06:26.520Z,94488.00
2023-06-22T08:06:38.101Z,94486.00
2023-06-22T08:06:49.467Z,94486.00
2023-06-22T08:07:01.048Z,94486.00
2023-06-22T08:07:12.360Z,94486.00
2023-06-22T08:07:23.929Z,94486.00
2023-06-22T08:07:35.274Z,94486.00
2023-06-22T08:07:48.689Z,94486.00
2023-06-22T08:07:57.918Z,94486.00
2023-06-22T08:08:09.497Z,94486.00
2023-06-22T08:08:20.824Z,94484.00
2023-06-22T08:08:32.415Z,94484.00
2023-06-22T08:08:43.717Z,94484.00
2023-06-22T08:08:55.289Z,94484.00
2023-06-22T08:09:06.609Z,94484.00
2023-06-22T08:09:18.198Z,94484.00
2023-06-22T08:09:29.510Z,94482.00
2023-06-22T08:09:41.149Z,94484.00
2023-06-22T08:09:52.471Z,94484.00
2023-06-22T08:10:04.041Z,94482.00
2023-06-22T08:10:15.365Z,94482.00
2023-06-22T08:10:26.953Z,94482.00
2023-06-22T08:10:38.293Z,94480.00
2023-06-22T08:10:49.903Z,94484.00
2023-06-22T08:11:01.229Z,94482.00
2023-06-22T08:11:12.822Z,94482.00
2023-06-22T08:11:24.115Z,94482.00
2023-06-22T08:11:35.684Z,94482.00
2023-06-22T08:11:47.001Z,94482.00
2023-06-22T08:11:58.560Z,94480.00
2023-06-22T08:12:09.886Z,94484.00
2023-06-22T08:12:21.449Z,94484.00
2023-06-22T08:12:32.755Z,94482.00
2023-06-22T08:12:44.355Z,94482.00
2023-06-22T08:12:55.677Z,94482.00
2023-06-22T08:13:07.246Z,94484.00
2023-06-22T08:13:18.565Z,94484.00
2023-06-22T08:13:30.169Z,94484.00
2023-06-22T08:13:41.493Z,94482.00
2023-06-22T08:13:53.092Z,94484.00
2023-06-22T08:14:04.398Z,94482.00
2023-06-22T08:14:15.956Z,94484.00
2023-06-22T08:14:27.306Z,94482.00
2023-06-22T08:14:38.869Z,94486.00
2023-06-22T08:14:50.263Z,94484.00
2023-06-22T08:15:01.837Z,94482.00
2023-06-22T08:15:13.150Z,94484.00
2023-06-22T08:15:24.728Z,94482.00
2023-06-22T08:15:36.096Z,94482.00
2023-06-22T08:15:50.305Z,94484.00
2023-06-22T08:15:59.756Z,94484.00
2023-06-22T08:16:11.358Z,94484.00
2023-06-22T08:16:22.661Z,94484.00
2023-06-22T08:16:34.237Z,94484.00
2023-06-22T08:16:45.603Z,94484.00
2023-06-22T08:16:57.155Z,94482.00
2023-06-22T08:17:08.479Z,94480.00
2023-06-22T08:17:20.094Z,94482.00
2023-06-22T08:17:31.423Z,94486.00
2023-06-22T08:17:43.093Z,94484.00
2023-06-22T08:17:54.491Z,94484.00
2023-06-22T08:18:06.083Z,94482.00
2023-06-22T08:18:17.397Z,94484.00
2023-06-22T08:18:28.974Z,94482.00
2023-06-22T08:18:40.303Z,94486.00
2023-06-22T08:18:51.876Z,94484.00
2023-06-22T08:19:03.199Z,94482.00
2023-06-22T08:19:14.819Z,94484.00
2023-06-22T08:19:26.126Z,94484.00
2023-06-22T08:19:37.700Z,94482.00
2023-06-22T08:19:49.013Z,94484.00
2023-06-22T08:20:00.641Z,94482.00
2023-06-22T08:20:11.948Z,94484.00
2023-06-22T08:20:23.525Z,94484.00
2023-06-22T08:20:34.852Z,94486.00
2023-06-22T08:20:46.473Z,94484.00
2023-06-22T08:20:57.797Z,94484.00
2023-06-22T08:21:09.393Z,94482.00
2023-06-22T08:21:20.720Z,94484.00
2023-06-22T08:21:32.306Z,94484.00
2023-06-22T08:21:43.643Z,94486.00
2023-06-22T08:21:55.224Z,94486.00
2023-06-22T08:22:06.528Z,94486.00
2023-06-22T08:22:18.105Z,94486.00
2023-06-22T08:22:29.440Z,94486.00
2023-06-22T08:22:40.997Z,94486.00
2023-06-22T08:22:52.344Z,94488.00
2023-06-22T08:23:03.940Z,94488.00
2023-06-22T08:23:15.273Z,94488.00
2023-06-22T08:23:26.888Z,94486.00
2023-06-22T08:23:38.221Z,94486.00
2023-06-22T08:23:49.827Z,94486.00
2023-06-22T08:24:01.139Z,94486.00
2023-06-22T08:24:12.712Z,94484.00
2023-06-22T08:24:24.112Z,94488.00
2023-06-22T08:24:35.723Z,94484.00
2023-06-22T08:24:47.049Z,94488.00
2023-06-22T08:24:58.621Z,94486.00
2023-06-22T08:25:10.003Z,94486.00
2023-06-22T08:25:21.589Z,94486.00
2023-06-22T08:25:33.031Z,94484.00
2023-06-22T08:25:44.631Z,94484.00
2023-06-22T08:25:55.957Z,94484.00
2023-06-22T08:26:07.537Z,94486.00
2023-06-22T08:26:18.878Z,94484.00
2023-06-22T08:26:30.467Z,94484.00
2023-06-22T08:26:41.792Z,94484.00
2023-06-22T08:26:53.366Z,94484.00
2023-06-22T08:27:04.705Z,94484.00
2023-06-22T08:27:16.295Z,94486.00
2023-06-22T08:27:27.620Z,94482.00
2023-06-22T08:27:39.228Z,94486.00
2023-06-22T08:27:50.539Z,94486.00
2023-06-22T08:28:02.100Z,94486.00
2023-06-22T08:28:13.406Z,94484.00
2023-06-22T08:28:25.005Z,94484.00
2023-06-22T08:28:36.344Z,94482.00
2023-06-22T08:28:50.731Z,94484.00
2023-06-22T08:28:58.001Z,94484.00
2023-06-22T08:29:09.324Z,94482.00
2023-06-22T08:29:20.892Z,94486.00
2023-06-22T08:29:32.234Z,94482.00
2023-06-22T08:29:43.846Z,94484.00
2023-06-22T08:29:55.185Z,94484.00
2023-06-22T08:30:06.804Z,94482.00
2023-06-22T08:30:18.145Z,94482.00
2023-06-22T08:30:29.710Z,94482.00
2023-06-22T08:30:41.033Z,94482.00
2023-06-22T08:30:52.596Z,94484.00
2023-06-22T08:31:03.926Z,94482.00
2023-06-22T08:31:15.513Z,94484.00
2023-06-22T08:31:26.902Z,94484.00
2023-06-22T08:31:38.587Z,94482.00
2023-06-22T08:31:50.088Z,94484.00
2023-06-22T08:32:01.713Z,94484.00
2023-06-22T08:32:13.111Z,94482.00
2023-06-22T08:32:24.701Z,94482.00
2023-06-22T08:32:36.157Z,94488.00
2023-06-22T08:32:47.898Z,94486.00
2023-06-22T08:32:59.251Z,94482.00
2023-06-22T08:33:12.063Z,94488.00
2023-06-22T08:33:28.104Z,94486.00
2023-06-22T08:33:34.261Z,94484.00
2023-06-22T08:33:49.492Z,94482.00
2023-06-22T08:33:57.181Z,94486.00
2023-06-22T08:34:08.508Z,94482.00
2023-06-22T08:34:20.071Z,94488.00
2023-06-22T08:34:31.412Z,94488.00
2023-06-22T08:34:42.993Z,94486.00
2023-06-22T08:34:54.313Z,94488.00
2023-06-22T08:35:05.988Z,94490.00
2023-06-22T08:35:17.326Z,94490.00
2023-06-22T08:35:29.250Z,94492.00
2023-06-22T08:35:41.103Z,94488.00
2023-06-22T08:35:52.428Z,94490.00
2023-06-22T08:36:04.001Z,94490.00
2023-06-22T08:36:15.317Z,94488.00
2023-06-22T08:36:26.878Z,94490.00
2023-06-22T08:36:38.181Z,94492.00
2023-06-22T08:36:49.743Z,94492.00
2023-06-22T08:37:01.091Z,94490.00
2023-06-22T08:37:12.652Z,94490.00
2023-06-22T08:37:23.960Z,94492.00
2023-06-22T08:37:35.558Z,94490.00
2023-06-22T08:37:46.918Z,94488.00
2023-06-22T08:37:58.501Z,94492.00
2023-06-22T08:38:09.821Z,94492.00
2023-06-22T08:38:21.416Z,94492.00
2023-06-22T08:38:32.760Z,94492.00
2023-06-22T08:38:44.333Z,94490.00
2023-06-22T08:38:55.640Z,94492.00
2023-06-22T08:39:07.219Z,94492.00
2023-06-22T08:39:18.571Z,94492.00
2023-06-22T08:39:30.170Z,94492.00
2023-06-22T08:39:41.540Z,94492.00
2023-06-22T08:39:53.106Z,94492.00
2023-06-22T08:40:04.439Z,94492.00
2023-06-22T08:40:16.024Z,94490.00
2023-06-22T08:40:27.323Z,94492.00
2023-06-22T08:40:38.913Z,94492.00
2023-06-22T08:40:50.245Z,94492.00
2023-06-22T08:41:01.851Z,94492.00
2023-06-22T08:41:13.158Z,94492.00
2023-06-22T08:41:24.739Z,94492.00
2023-06-22T08:41:36.076Z,94490.00
2023-06-22T08:41:47.687Z,94492.00
2023-06-22T08:41:58.994Z,94492.00
2023-06-22T08:42:10.559Z,94490.00
2023-06-22T08:42:21.871Z,94490.00
2023-06-22T08:42:33.429Z,94490.00
2023-06-22T08:42:44.728Z,94488.00
2023-06-22T08:42:56.334Z,94492.00
2023-06-22T08:43:07.667Z,94492.00
2023-06-22T08:43:19.254Z,94490.00
2023-06-22T08:43:30.605Z,94492.00
2023-06-22T08:43:42.196Z,94490.00
2023-06-22T08:43:53.550Z,94490.00
2023-06-22T08:44:05.133Z,94490.00
2023-06-22T08:44:16.485Z,94490.00
2023-06-22T08:44:28.071Z,94494.00
2023-06-22T08:44:39.381Z,94488.00
2023-06-22T08:44:50.944Z,94494.00
2023-06-22T08:45:02.251Z,94492.00
2023-06-22T08:45:13.822Z,94492.00
2023-06-22T08:45:25.653Z,94490.00
2023-06-22T08:45:35.595Z,94490.00
2023-06-22T08:45:47.425Z,94490.00
2023-06-22T08:45:58.754Z,94492.00
2023-06-22T08:46:10.367Z,94490.00
2023-06-22T08:46:21.673Z,94494.00
2023-06-22T08:46:33.279Z,94494.00
2023-06-22T08:46:44.603Z,94490.00
2023-06-22T08:46:56.379Z,94492.00
2023-06-22T08:47:07.658Z,94492.00
2023-06-22T08:47:19.296Z,94492.00
2023-06-22T08:47:30.645Z,94492.00
2023-06-22T08:47:42.334Z,94490.00
2023-06-22T08:47:53.885Z,94490.00
2023-06-22T08:48:05.508Z,94490.00
2023-06-22T08:48:16.794Z,94492.00
2023-06-22T08:48:28.385Z,94492.00
2023-06-22T08:48:39.717Z,94492.00
2023-06-22T08:48:51.303Z,94492.00
2023-06-22T08:49:02.701Z,94492.00
2023-06-22T08:49:14.275Z,94492.00
2023-06-22T08:49:25.583Z,94492.00
2023-06-22T08:49:37.168Z,94498.00
2023-06-22T08:49:48.520Z,94496.00
2023-06-22T08:50:00.089Z,94496.00
2023-06-22T08:50:11.394Z,94496.00
2023-06-22T08:50:23.012Z,94496.00
2023-06-22T08:50:34.316Z,94496.00
2023-06-22T08:50:45.878Z,94494.00
2023-06-22T08:50:57.195Z,94496.00
2023-06-22T08:51:08.794Z,94496.00
2023-06-22T08:51:20.159Z,94494.00
2023-06-22T08:51:31.767Z,94496.00
2023-06-22T08:51:43.072Z,94498.00
2023-06-22T08:51:54.660Z,94496.00
2023-06-22T08:52:06.029Z,94496.00
2023-06-22T08:52:16.744Z,94498.00
2023-06-22T08:52:28.324Z,94496.00
2023-06-22T08:52:39.651Z,94496.00
2023-06-22T08:52:51.250Z,94494.00
2023-06-22T08:53:02.554Z,94498.00
2023-06-22T08:53:14.120Z,94498.00
2023-06-22T08:53:25.449Z,94496.00
2023-06-22T08:53:37.009Z,94498.00
2023-06-22T08:53:48.350Z,94496.00
2023-06-22T08:53:59.938Z,94494.00
2023-06-22T08:54:11.258Z,94498.00
2023-06-22T08:54:22.825Z,94496.00
2023-06-22T08:54:34.155Z,94498.00
2023-06-22T08:54:45.733Z,94499.00
2023-06-22T08:54:57.014Z,94496.00
2023-06-22T08:55:08.609Z,94498.00
2023-06-22T08:55:19.911Z,94496.00
2023-06-22T08:55:32.001Z,94496.00
2023-06-22T08:55:43.837Z,94499.00
2023-06-22T08:55:55.197Z,94499.00
2023-06-22T08:56:06.776Z,94496.00
2023-06-22T08:56:18.083Z,94496.00
2023-06-22T08:56:29.665Z,94499.00
2023-06-22T08:56:40.988Z,94498.00
2023-06-22T08:56:52.592Z,94498.00
2023-06-22T08:57:03.925Z,94498.00
2023-06-22T08:57:15.486Z,94496.00
2023-06-22T08:57:26.806Z,94496.00
2023-06-22T08:57:38.374Z,94496.00
2023-06-22T08:57:49.682Z,94498.00
2023-06-22T08:58:01.271Z,94498.00
2023-06-22T08:58:12.613Z,94498.00
2023-06-22T08:58:24.176Z,94496.00
2023-06-22T08:58:35.482Z,94496.00
2023-06-22T08:58:47.069Z,94494.00
2023-06-22T08:58:58.387Z,94498.00
2023-06-22T08:59:09.954Z,94496.00
2023-06-22T08:59:21.271Z,94496.00
2023-06-22T08:59:32.854Z,94496.00
2023-06-22T08:59:44.214Z,94494.00
2023-06-22T08:59:55.767Z,94492.00
2023-06-22T09:00:07.089Z,94494.00
2023-06-22T09:00:18.977Z,94494.00
2023-06-22T09:00:30.317Z,94496.00
2023-06-22T09:00:41.900Z,94494.00
2023-06-22T09:00:53.257Z,94494.00
2023-06-22T09:01:04.816Z,94494.00
2023-06-22T09:01:16.161Z,94494.00
2023-06-22T09:01:27.757Z,94490.00
2023-06-22T09:01:39.090Z,94494.00
2023-06-22T09:01:50.648Z,94492.00
2023-06-22T09:02:02.140Z,94492.00
2023-06-22T09:02:13.739Z,94492.00
2023-06-22T09:02:25.198Z,94492.00
2023-06-22T09:02:36.914Z,94492.00
2023-06-22T09:02:48.376Z,94492.00
2023-06-22T09:03:00.428Z,94492.00
2023-06-22T09:03:12.489Z,94490.00
2023-06-22T09:03:24.012Z,94494.00
2023-06-22T09:03:35.821Z,94490.00
2023-06-22T09:03:47.287Z,94492.00
2023-06-22T09:03:59.311Z,94494.00
2023-06-22T09:04:11.014Z,94488.00
2023-06-22T09:04:23.226Z,94492.00
2023-06-22T09:04:35.204Z,94490.00
2023-06-22T09:04:46.855Z,94496.00
2023-06-22T09:04:58.641Z,94496.00
2023-06-22T09:05:10.142Z,94488.00
2023-06-22T09:05:21.887Z,94490.00
2023-06-22T09:05:33.557Z,94488.00
2023-06-22T09:05:45.448Z,94488.00
2023-06-22T09:05:56.770Z,94496.00
2023-06-22T09:06:08.443Z,94496.00
2023-06-22T09:06:19.826Z,94496.00
2023-06-22T09:06:31.383Z,94492.00
2023-06-22T09:06:42.699Z,94496.00
2023-06-22T09:06:54.295Z,94496.00
2023-06-22T09:07:05.609Z,94494.00
2023-06-22T09:07:17.178Z,94492.00
2023-06-22T09:07:28.512Z,94490.00
2023-06-22T09:07:40.068Z,94494.00
2023-06-22T09:07:51.413Z,94494.00
2023-06-22T09:08:02.978Z,94492.00
2023-06-22T09:08:14.285Z,94492.00
2023-06-22T09:08:25.911Z,94496.00
2023-06-22T09:08:37.206Z,94496.00
2023-06-22T09:08:48.799Z,94494.00
2023-06-22T09:09:00.135Z,94492.00
2023-06-22T09:09:11.706Z,94492.00
2023-06-22T09:09:23.043Z,94494.00
2023-06-22T09:09:34.801Z,94492.00
2023-06-22T09:09:46.096Z,94492.00
2023-06-22T09:09:57.699Z,94492.00
2023-06-22T09:10:09.006Z,94492.00
2023-06-22T09:10:20.733Z,94492.00
2023-06-22T09:10:32.295Z,94494.00
2023-06-22T09:10:44.149Z,94492.00
2023-06-22T09:10:55.453Z,94492.00
2023-06-22T09:11:07.021Z,94492.00
2023-06-22T09:11:18.320Z,94490.00
2023-06-22T09:11:29.900Z,94492.00
2023-06-22T09:11:41.227Z,94490.00
2023-06-22T09:11:52.824Z,94490.00
2023-06-22T09:12:04.161Z,94488.00
2023-06-22T09:12:15.740Z,94488.00
2023-06-22T09:12:27.059Z,94490.00
2023-06-22T09:12:38.636Z,94490.00
2023-06-22T09:12:49.965Z,94490.00
2023-06-22T09:13:01.558Z,94490.00
2023-06-22T09:13:12.876Z,94488.00
2023-06-22T09:13:24.437Z,94490.00
2023-06-22T09:13:35.761Z,94490.00
2023-06-22T09:13:47.345Z,94490.00
2023-06-22T09:13:58.667Z,94492.00
2023-06-22T09:14:10.271Z,94490.00
2023-06-22T09:14:21.579Z,94490.00
2023-06-22T09:14:33.209Z,94488.00
2023-06-22T09:14:44.636Z,94492.00
2023-06-22T09:14:56.229Z,94490.00
2023-06-22T09:15:09.214Z,94492.00
2023-06-22T09:15:19.392Z,94490.00
2023-06-22T09:15:31.308Z,94490.00
2023-06-22T09:15:40.805Z,94490.00
2023-06-22T09:15:52.391Z,94490.00
2023-06-22T09:16:03.725Z,94490.00
2023-06-22T09:16:15.327Z,94488.00
2023-06-22T09:16:26.647Z,94488.00
2023-06-22T09:16:38.227Z,94488.00
2023-06-22T09:16:49.575Z,94490.00
2023-06-22T09:17:01.156Z,94490.00
2023-06-22T09:17:12.509Z,94488.00
2023-06-22T09:17:24.138Z,94490.00
2023-06-22T09:17:35.593Z,94490.00
2023-06-22T09:17:47.245Z,94488.00
2023-06-22T09:17:58.721Z,94488.00
2023-06-22T09:18:10.444Z,94488.00
2023-06-22T09:18:21.799Z,94486.00
2023-06-22T09:18:33.372Z,94492.00
2023-06-22T09:18:44.689Z,94494.00
2023-06-22T09:18:56.258Z,94492.00
2023-06-22T09:19:07.608Z,94492.00
2023-06-22T09:19:19.175Z,94490.00
2023-06-22T09:19:30.482Z,94494.00
2023-06-22T09:19:42.039Z,94492.00
2023-06-22T09:19:53.362Z,94494.00
2023-06-22T09:20:05.929Z,94492.00
2023-06-22T09:20:16.599Z,94492.00
2023-06-22T09:20:28.636Z,94492.00
2023-06-22T09:20:40.412Z,94492.00
2023-06-22T09:20:51.749Z,94490.00
2023-06-22T09:21:03.347Z,94492.00
2023-06-22T09:21:14.676Z,94492.00
2023-06-22T09:21:26.332Z,94492.00
2023-06-22T09:21:37.650Z,94492.00
2023-06-22T09:21:49.209Z,94492.00
2023-06-22T09:22:00.538Z,94492.00
2023-06-22T09:22:12.124Z,94492.00
2023-06-22T09:22:23.423Z,94492.00
2023-06-22T09:22:35.003Z,94492.00
2023-06-22T09:22:46.364Z,94490.00
2023-06-22T09:22:57.957Z,94492.00
2023-06-22T09:23:09.262Z,94490.00
2023-06-22T09:23:20.823Z,94492.00
2023-06-22T09:23:32.145Z,94490.00
2023-06-22T09:23:43.733Z,94492.00
2023-06-22T09:23:55.053Z,94492.00
2023-06-22T09:24:06.634Z,94492.00
2023-06-22T09:24:17.972Z,94488.00
2023-06-22T09:24:29.556Z,94490.00
2023-06-22T09:24:40.872Z,94490.00
2023-06-22T09:24:52.443Z,94490.00
2023-06-22T09:25:05.563Z,94490.00
2023-06-22T09:25:14.098Z,94490.00
2023-06-22T09:25:25.429Z,94492.00
2023-06-22T09:25:37.033Z,94490.00
2023-06-22T09:25:48.342Z,94490.00
2023-06-22T09:25:59.899Z,94486.00
2023-06-22T09:26:11.213Z,94490.00
2023-06-22T09:26:22.926Z,94490.00
2023-06-22T09:26:34.269Z,94490.00
2023-06-22T09:26:45.852Z,94490.00
2023-06-22T09:26:57.185Z,94490.00
2023-06-22T09:27:08.771Z,94490.00
2023-06-22T09:27:20.108Z,94490.00
2023-06-22T09:27:31.696Z,94490.00
2023-06-22T09:27:43.039Z,94490.00
2023-06-22T09:27:54.581Z,94492.00
2023-06-22T09:28:05.888Z,94492.00
2023-06-22T09:28:17.445Z,94490.00
2023-06-22T09:28:28.758Z,94490.00
2023-06-22T09:28:40.320Z,94490.00
2023-06-22T09:28:51.644Z,94492.00
2023-06-22T09:29:03.209Z,94490.00
2023-06-22T09:29:14.530Z,94490.00
2023-06-22T09:29:26.109Z,94490.00
2023-06-22T09:29:37.421Z,94490.00
2023-06-22T09:29:48.979Z,94490.00
2023-06-22T09:30:00.332Z,94492.00
2023-06-22T09:30:11.910Z,94494.00
2023-06-22T09:30:23.205Z,94490.00
2023-06-22T09:30:34.769Z,94492.00
2023-06-22T09:30:46.100Z,94490.00
2023-06-22T09:30:57.720Z,94494.00
2023-06-22T09:31:09.084Z,94490.00
2023-06-22T09:31:21.883Z,94490.00
2023-06-22T09:31:31.818Z,94490.00
2023-06-22T09:31:43.437Z,94492.00
2023-06-22T09:31:54.803Z,94492.00
2023-06-22T09:32:06.533Z,94492.00
2023-06-22T09:32:18.005Z,94492.00
2023-06-22T09:32:29.621Z,94490.00
2023-06-22T09:32:40.996Z,94492.00
2023-06-22T09:32:52.625Z,94490.00
2023-06-22T09:33:04.014Z,94490.00
2023-06-22T09:33:15.594Z,94490.00
2023-06-22T09:33:26.909Z,94490.00
2023-06-22T09:33:38.523Z,94490.00
2023-06-22T09:33:49.851Z,94492.00
2023-06-22T09:34:01.454Z,94492.00
2023-06-22T09:34:12.811Z,94490.00
2023-06-22T09:34:24.365Z,94492.00
2023-06-22T09:34:35.678Z,94490.00
2023-06-22T09:34:47.241Z,94490.00
2023-06-22T09:34:58.546Z,94490.00
2023-06-22T09:35:10.829Z,94490.00
2023-06-22T09:35:20.292Z,94492.00
2023-06-22T09:35:31.916Z,94488.00
2023-06-22T09:35:43.245Z,94492.00
2023-06-22T09:35:54.797Z,94492.00
2023-06-22T09:36:06.120Z,94492.00
2023-06-22T09:36:17.693Z,94492.00
2023-06-22T09:36:29.011Z,94492.00
2023-06-22T09:36:40.716Z,94492.00
2023-06-22T09:36:52.040Z,94490.00
2023-06-22T09:37:03.599Z,94492.00
2023-06-22T09:37:14.933Z,94492.00
2023-06-22T09:37:26.522Z,94492.00
2023-06-22T09:37:37.831Z,94492.00
2023-06-22T09:37:49.409Z,94492.00
2023-06-22T09:38:00.732Z,94492.00
2023-06-22T09:38:12.327Z,94490.00
2023-06-22T09:38:23.638Z,94492.00
2023-06-22T09:38:35.223Z,94494.00
2023-06-22T09:38:46.540Z,94492.00
2023-06-22T09:38:58.169Z,94492.00
2023-06-22T09:39:09.486Z,94492.00
2023-06-22T09:39:21.071Z,94492.00
2023-06-22T09:39:32.389Z,94492.00
2023-06-22T09:39:43.971Z,94490.00
2023-06-22T09:39:55.293Z,94490.00
2023-06-22T09:40:06.901Z,94490.00
2023-06-22T09:40:18.437Z,94490.00
2023-06-22T09:40:30.326Z,94490.00
2023-06-22T09:40:41.809Z,94490.00
2023-06-22T09:40:53.369Z,94490.00
2023-06-22T09:41:04.692Z,94488.00
2023-06-22T09:41:16.375Z,94490.00
2023-06-22T09:41:27.717Z,94488.00
2023-06-22T09:41:39.308Z,94486.00
2023-06-22T09:41:50.640Z,94488.00
2023-06-22T09:42:02.197Z,94488.00
2023-06-22T09:42:13.501Z,94494.00
2023-06-22T09:42:25.159Z,94492.00
2023-06-22T09:42:36.483Z,94492.00
2023-06-22T09:42:48.054Z,94490.00
2023-06-22T09:42:59.390Z,94490.00
2023-06-22T09:43:10.975Z,94490.00
2023-06-22T09:43:22.323Z,94492.00
2023-06-22T09:43:33.902Z,94492.00
2023-06-22T09:43:45.225Z,94490.00
2023-06-22T09:43:57.208Z,94490.00
2023-06-22T09:44:08.553Z,94490.00
2023-06-22T09:44:20.115Z,94488.00
2023-06-22T09:44:31.450Z,94488.00
2023-06-22T09:44:43.022Z,94486.00
2023-06-22T09:44:54.342Z,94488.00
2023-06-22T09:45:05.950Z,94490.00
2023-06-22T09:45:17.275Z,94488.00
2023-06-22T09:45:28.866Z,94488.00
2023-06-22T09:45:40.189Z,94486.00
2023-06-22T09:45:52.418Z,94488.00
2023-06-22T09:46:03.719Z,94490.00
2023-06-22T09:46:15.298Z,94488.00
2023-06-22T09:46:26.721Z,94488.00
2023-06-22T09:46:38.272Z,94490.00
2023-06-22T09:46:49.597Z,94488.00
2023-06-22T09:47:01.161Z,94488.00
2023-06-22T09:47:12.475Z,94488.00
2023-06-22T09:47:24.157Z,94490.00
2023-06-22T09:47:35.525Z,94488.00
2023-06-22T09:47:47.157Z,94488.00
2023-06-22T09:47:58.526Z,94490.00
2023-06-22T09:48:10.111Z,94488.00
2023-06-22T09:48:21.445Z,94488.00
2023-06-22T09:48:33.026Z,94486.00
2023-06-22T09:48:44.380Z,94490.00
2023-06-22T09:48:55.974Z,94490.00
2023-06-22T09:49:07.268Z,94486.00
2023-06-22T09:49:23.350Z,94488.00
2023-06-22T09:49:46.436Z,94490.00
2023-06-22T09:49:48.438Z,94490.00
2023-06-22T09:49:54.839Z,94486.00
2023-06-22T09:50:06.148Z,94488.00
2023-06-22T09:50:17.740Z,94488.00
2023-06-22T09:50:29.534Z,94490.00
2023-06-22T09:50:41.447Z,94488.00
2023-06-22T09:50:52.766Z,94488.00
2023-06-22T09:51:04.384Z,94488.00
2023-06-22T09:51:17.952Z,94488.00
2023-06-22T09:51:27.381Z,94488.00
2023-06-22T09:51:39.046Z,94490.00
2023-06-22T09:51:50.381Z,94486.00
2023-06-22T09:52:01.968Z,94488.00
2023-06-22T09:52:13.274Z,94488.00
2023-06-22T09:52:28.460Z,94490.00
2023-06-22T09:52:48.665Z,94488.00
2023-06-22T09:52:58.027Z,94488.00
2023-06-22T09:53:09.651Z,94488.00
2023-06-22T09:53:20.941Z,94490.00
2023-06-22T09:53:32.512Z,94490.00
2023-06-22T09:53:43.819Z,94490.00
2023-06-22T09:53:55.410Z,94488.00
2023-06-22T09:54:06.724Z,94488.00
2023-06-22T09:54:18.297Z,94490.00
2023-06-22T09:54:29.666Z,94490.00
2023-06-22T09:54:41.246Z,94488.00
2023-06-22T09:54:52.570Z,94488.00
2023-06-22T09:55:04.225Z,94490.00
2023-06-22T09:55:15.521Z,94490.00
2023-06-22T09:55:27.351Z,94490.00
2023-06-22T09:55:39.155Z,94488.00
2023-06-22T09:55:50.469Z,94488.00
2023-06-22T09:56:02.027Z,94488.00
2023-06-22T09:56:13.401Z,94488.00
2023-06-22T09:56:26.720Z,94488.00
2023-06-22T09:56:36.714Z,94490.00
2023-06-22T09:56:48.256Z,94488.00
2023-06-22T09:56:59.586Z,94490.00
2023-06-22T09:57:11.174Z,94488.00
2023-06-22T09:57:22.533Z,94492.00
2023-06-22T09:57:34.141Z,94488.00
2023-06-22T09:57:45.465Z,94488.00
2023-06-22T09:57:57.047Z,94488.00
2023-06-22T09:58:08.379Z,94486.00
2023-06-22T09:58:19.999Z,94486.00
2023-06-22T09:58:31.341Z,94488.00
2023-06-22T09:58:42.924Z,94490.00
2023-06-22T09:58:54.432Z,94486.00
2023-06-22T09:59:17.657Z,94488.00
2023-06-22T09:59:19.272Z,94490.00
2023-06-22T09:59:28.498Z,94488.00
2023-06-22T09:59:40.122Z,94488.00
2023-06-22T09:59:51.482Z,94488.00
2023-06-22T10:00:03.075Z,94486.00
2023-06-22T10:00:14.436Z,94488.00
2023-06-22T10:00:26.087Z,94488.00
2023-06-22T10:00:37.405Z,94488.00
2023-06-22T10:00:49.082Z,94490.00
2023-06-22T10:01:00.400Z,94488.00
2023-06-22T10:01:12.006Z,94488.00
2023-06-22T10:01:23.337Z,94486.00